createdAt,value
2019-03-31T00:00:26.361Z,43.4
2019-03-31T00:01:40.525Z,43.3
2019-03-31T00:02:54.718Z,42.3
2019-03-31T00:04:08.944Z,43.2
2019-03-31T00:05:23.231Z,43.8
2019-03-31T00:06:37.461Z,44.6
2019-03-31T00:07:51.518Z,43.5
2019-03-31T00:09:05.709Z,45.1
2019-03-31T00:10:19.918Z,44.2
2019-03-31T00:11:34.083Z,45.9
2019-03-31T00:12:48.288Z,46.1
2019-03-31T00:14:02.511Z,45.1
2019-03-31T00:15:16.653Z,44.1
2019-03-31T00:16:30.946Z,46.9
2019-03-31T00:17:45.117Z,45.7
2019-03-31T00:18:59.299Z,44.2
2019-03-31T00:20:13.522Z,46
2019-03-31T00:21:33.085Z,46
2019-03-31T00:22:41.877Z,47.1
2019-03-31T00:23:56.126Z,45.9
2019-03-31T00:25:10.275Z,47
2019-03-31T00:26:24.489Z,47.6
2019-03-31T00:27:38.704Z,47.6
2019-03-31T00:28:52.865Z,46.3
2019-03-31T00:30:07.170Z,48.2
2019-03-31T00:31:21.282Z,47.7
2019-03-31T00:32:35.487Z,48.8
2019-03-31T00:33:49.775Z,47.7
2019-03-31T00:35:03.958Z,46.6
2019-03-31T00:36:18.067Z,46.4
2019-03-31T00:37:32.360Z,48.7
2019-03-31T00:38:46.522Z,49
2019-03-31T00:40:00.671Z,48.1
2019-03-31T00:41:17.652Z,48
2019-03-31T00:42:32.977Z,48.7
2019-03-31T00:43:43.242Z,47.6
2019-03-31T00:44:57.424Z,48.4
2019-03-31T00:46:11.750Z,49.6
2019-03-31T00:47:25.807Z,49.7
2019-03-31T00:48:40.060Z,48.9
2019-03-31T00:49:54.294Z,49.3
2019-03-31T00:51:08.422Z,49.8
2019-03-31T00:52:22.576Z,50
2019-03-31T00:53:36.769Z,48.2
2019-03-31T00:54:51.009Z,49.4
2019-03-31T00:56:05.212Z,49.1
2019-03-31T00:57:19.369Z,50
2019-03-31T00:58:33.576Z,49.9
2019-03-31T00:59:47.783Z,48.9
2019-03-31T01:01:01.988Z,48.7
2019-03-31T01:02:16.189Z,48.3
2019-03-31T01:03:30.364Z,49.2
2019-03-31T01:04:44.569Z,48
2019-03-31T01:05:58.823Z,47.8
2019-03-31T01:07:13.120Z,47.3
2019-03-31T01:08:27.155Z,50.3
2019-03-31T01:09:41.398Z,50.8
2019-03-31T01:10:55.634Z,49.8
2019-03-31T01:12:09.722Z,49.5
2019-03-31T01:13:23.932Z,48.8
2019-03-31T01:14:38.129Z,51
2019-03-31T01:15:52.309Z,50.6
2019-03-31T01:17:06.515Z,49.9
2019-03-31T01:18:20.718Z,50.7
2019-03-31T01:19:34.906Z,49.1
2019-03-31T01:20:49.128Z,50.5
2019-03-31T01:22:03.450Z,49.9
2019-03-31T01:23:17.501Z,52.1
2019-03-31T01:24:31.705Z,50.3
2019-03-31T01:25:45.931Z,49.7
2019-03-31T01:27:00.099Z,52.2
2019-03-31T01:28:14.299Z,51.5
2019-03-31T01:29:28.571Z,52.1
2019-03-31T01:30:42.786Z,50.8
2019-03-31T01:31:56.918Z,53.3
2019-03-31T01:33:11.206Z,52.8
2019-03-31T01:34:25.309Z,51.8
2019-03-31T01:35:39.508Z,51.9
2019-03-31T01:36:53.741Z,51.3
2019-03-31T01:38:07.928Z,54.9
2019-03-31T01:39:22.106Z,52.9
2019-03-31T01:40:36.412Z,52.2
2019-03-31T01:41:50.490Z,52
2019-03-31T01:43:04.752Z,52.4
2019-03-31T01:44:18.942Z,52.6
2019-03-31T01:45:33.155Z,53.9
2019-03-31T01:46:47.299Z,53
2019-03-31T01:48:01.509Z,53.2
2019-03-31T01:49:15.708Z,54.2
2019-03-31T01:50:29.911Z,53.9
2019-03-31T01:51:44.147Z,53
2019-03-31T01:52:58.309Z,52.7
2019-03-31T01:54:12.672Z,53
2019-03-31T01:55:26.829Z,52.9
2019-03-31T01:56:40.929Z,54.1
2019-03-31T01:57:55.212Z,53.8
2019-03-31T01:59:09.353Z,55.2
2019-03-31T02:00:23.600Z,55.8
2019-03-31T02:01:37.775Z,53.8
2019-03-31T02:02:52.023Z,53.3
2019-03-31T02:04:06.187Z,53.5
2019-03-31T02:05:20.391Z,55.2
2019-03-31T02:06:34.609Z,56.2
2019-03-31T02:07:48.795Z,56.5
2019-03-31T02:09:03.004Z,56.4
2019-03-31T02:10:17.199Z,55
2019-03-31T02:11:31.407Z,57.9
2019-03-31T02:12:45.636Z,55.6
2019-03-31T02:13:59.836Z,55.7
2019-03-31T02:15:14.041Z,55.2
2019-03-31T02:16:28.329Z,55.4
2019-03-31T02:17:42.499Z,55.7
2019-03-31T02:18:56.647Z,56.5
2019-03-31T02:20:10.874Z,56.2
2019-03-31T02:21:27.435Z,57.3
2019-03-31T02:22:39.383Z,56.2
2019-03-31T02:23:53.550Z,56.8
2019-03-31T02:25:07.704Z,56.4
2019-03-31T02:26:21.996Z,56.3
2019-03-31T02:27:36.269Z,57.9
2019-03-31T02:28:50.399Z,57.4
2019-03-31T02:30:04.689Z,57.3
2019-03-31T02:31:18.764Z,58.3
2019-03-31T02:32:32.972Z,56.6
2019-03-31T02:33:47.164Z,58.2
2019-03-31T02:35:01.455Z,57.7
2019-03-31T02:36:15.581Z,59
2019-03-31T02:37:29.870Z,57.8
2019-03-31T02:38:44.069Z,58.1
2019-03-31T02:39:58.200Z,57.9
2019-03-31T02:41:13.208Z,57.1
2019-03-31T02:42:26.598Z,56.6
2019-03-31T02:43:40.853Z,58.9
2019-03-31T02:44:54.999Z,57.8
2019-03-31T02:46:09.303Z,58.3
2019-03-31T02:47:23.465Z,60.3
2019-03-31T02:48:37.627Z,58.2
2019-03-31T02:49:51.908Z,57.1
2019-03-31T02:51:06.081Z,58.1
2019-03-31T02:52:20.345Z,57.5
2019-03-31T02:53:34.467Z,58.6
2019-03-31T02:54:48.721Z,58.3
2019-03-31T02:56:02.937Z,58.6
2019-03-31T02:57:17.106Z,60.6
2019-03-31T02:58:31.320Z,58.8
2019-03-31T02:59:45.620Z,58.8
2019-03-31T03:00:59.837Z,56.5
2019-03-31T03:02:13.992Z,57.5
2019-03-31T03:03:28.133Z,57.1
2019-03-31T03:04:42.338Z,58.2
2019-03-31T03:06:00.429Z,55.9
2019-03-31T03:07:11.269Z,56.8
2019-03-31T03:08:25.026Z,55.7
2019-03-31T03:09:39.464Z,55.8
2019-03-31T03:10:53.359Z,55.9
2019-03-31T03:12:07.585Z,55.9
2019-03-31T03:13:21.821Z,56
2019-03-31T03:14:36.001Z,56.8
2019-03-31T03:15:50.257Z,55
2019-03-31T03:17:04.477Z,55.8
2019-03-31T03:18:18.579Z,55.8
2019-03-31T03:19:32.881Z,55.8
2019-03-31T03:20:47.035Z,55
2019-03-31T03:22:01.269Z,54.6
2019-03-31T03:23:15.500Z,53.4
2019-03-31T03:24:29.693Z,53.3
2019-03-31T03:25:43.845Z,51.8
2019-03-31T03:26:58.003Z,51.2
2019-03-31T03:28:12.263Z,52
2019-03-31T03:29:26.404Z,52.4
2019-03-31T03:30:40.634Z,50.7
2019-03-31T03:31:54.810Z,50.3
2019-03-31T03:33:09.075Z,51.1
2019-03-31T03:34:23.229Z,50.6
2019-03-31T03:35:37.458Z,49.7
2019-03-31T03:36:51.752Z,50.1
2019-03-31T03:38:05.860Z,52.3
2019-03-31T03:39:20.220Z,51.1
2019-03-31T03:40:34.398Z,50.7
2019-03-31T03:41:48.572Z,50.7
2019-03-31T03:43:02.779Z,49.6
2019-03-31T03:44:16.990Z,50.1
2019-03-31T03:45:31.169Z,50.2
2019-03-31T03:46:45.279Z,48.4
2019-03-31T03:47:59.622Z,52
2019-03-31T03:49:13.912Z,49.8
2019-03-31T03:50:27.986Z,46.9
2019-03-31T03:51:42.249Z,49.2
2019-03-31T03:52:56.354Z,49.4
2019-03-31T03:54:10.551Z,47.2
2019-03-31T03:55:24.782Z,46.2
2019-03-31T03:56:39.053Z,47.5
2019-03-31T03:57:53.180Z,46.9
2019-03-31T03:59:07.475Z,47.2
2019-03-31T04:00:21.647Z,48.8
2019-03-31T04:01:35.820Z,48.8
2019-03-31T04:02:50.025Z,48.3
2019-03-31T04:04:04.234Z,48.1
2019-03-31T04:05:18.453Z,45.5
2019-03-31T04:06:32.672Z,46.8
2019-03-31T04:07:48.157Z,46
2019-03-31T04:09:01.133Z,45.7
2019-03-31T04:10:15.277Z,45
2019-03-31T04:11:29.459Z,46.2
2019-03-31T04:12:43.892Z,43.8
2019-03-31T04:13:57.871Z,45
2019-03-31T04:15:12.092Z,46.9
2019-03-31T04:16:26.270Z,44.8
2019-03-31T04:17:40.443Z,40.5
2019-03-31T04:18:54.641Z,43.1
2019-03-31T04:20:08.834Z,43.5
2019-03-31T04:21:23.125Z,43.1
2019-03-31T04:22:37.250Z,42.2
2019-03-31T04:23:51.508Z,44.7
2019-03-31T04:25:06.096Z,43.3
2019-03-31T04:26:19.843Z,41.2
2019-03-31T04:27:34.056Z,43.3
2019-03-31T04:28:48.309Z,42.6
2019-03-31T04:30:02.530Z,42.5
2019-03-31T04:31:16.667Z,42.3
2019-03-31T04:32:30.864Z,42.6
2019-03-31T04:33:45.134Z,41.3
2019-03-31T04:34:59.332Z,42.5
2019-03-31T04:36:13.573Z,40.1
2019-03-31T04:37:27.687Z,40.8
2019-03-31T04:38:41.881Z,41.1
2019-03-31T04:39:56.146Z,40.7
2019-03-31T04:41:10.280Z,43
2019-03-31T04:42:24.485Z,41.1
2019-03-31T04:43:38.684Z,40.6
2019-03-31T04:44:52.986Z,39.9
2019-03-31T04:46:07.146Z,40.1
2019-03-31T04:47:21.348Z,39.5
2019-03-31T04:48:35.585Z,39.1
2019-03-31T04:49:49.727Z,38.5
2019-03-31T04:51:04.019Z,38.6
2019-03-31T04:52:18.131Z,39
2019-03-31T04:53:32.396Z,39
2019-03-31T04:54:46.531Z,38.9
2019-03-31T04:56:00.887Z,37.5
2019-03-31T04:57:14.925Z,38.6
2019-03-31T04:58:29.170Z,40.8
2019-03-31T04:59:43.351Z,38.8
2019-03-31T05:00:57.575Z,39.8
2019-03-31T05:02:11.774Z,39.8
2019-03-31T05:03:25.958Z,38.5
2019-03-31T05:04:40.273Z,38.3
2019-03-31T05:05:54.399Z,38.5
2019-03-31T05:07:08.626Z,39.4
2019-03-31T05:08:22.802Z,37.3
2019-03-31T05:09:37.063Z,37.8
2019-03-31T05:10:51.337Z,37.3
2019-03-31T05:12:05.405Z,35.7
2019-03-31T05:13:19.607Z,38.4
2019-03-31T05:14:33.953Z,39.4
2019-03-31T05:15:48.102Z,39.7
2019-03-31T05:17:02.212Z,38.2
2019-03-31T05:18:16.416Z,37.8
2019-03-31T05:19:30.622Z,38.6
2019-03-31T05:20:47.216Z,39.9
2019-03-31T05:21:59.989Z,40.2
2019-03-31T05:23:13.271Z,39.8
2019-03-31T05:24:27.431Z,41.2
2019-03-31T05:25:41.644Z,40.1
2019-03-31T05:26:55.909Z,40.6
2019-03-31T05:28:10.042Z,39.8
2019-03-31T05:29:24.276Z,40.9
2019-03-31T05:30:38.474Z,39.3
2019-03-31T05:31:52.700Z,38.8
2019-03-31T05:33:07.043Z,39.4
2019-03-31T05:34:21.050Z,39.6
2019-03-31T05:35:35.294Z,37.6
2019-03-31T05:36:49.507Z,40.3
2019-03-31T05:38:03.654Z,40.3
2019-03-31T05:39:17.955Z,39.6
2019-03-31T05:40:32.034Z,39.9
2019-03-31T05:41:46.265Z,39
2019-03-31T05:43:00.482Z,38.7
2019-03-31T05:44:14.651Z,37.9
2019-03-31T05:45:28.952Z,36.4
2019-03-31T05:46:43.047Z,38.3
2019-03-31T05:47:57.236Z,38.7
2019-03-31T05:49:11.443Z,38.2
2019-03-31T05:50:25.633Z,38.4
2019-03-31T05:51:40.484Z,38.4
2019-03-31T05:52:54.040Z,37.9
2019-03-31T05:54:08.229Z,38.2
2019-03-31T05:55:22.516Z,38.8
2019-03-31T05:56:36.662Z,37
2019-03-31T05:57:50.853Z,35.6
2019-03-31T05:59:05.171Z,39.3
2019-03-31T06:00:23.457Z,34.9
2019-03-31T06:01:36.148Z,38.5
2019-03-31T06:02:47.611Z,37.9
2019-03-31T06:04:01.797Z,36.7
2019-03-31T06:05:15.996Z,37.2
2019-03-31T06:06:30.227Z,38.4
2019-03-31T06:07:44.412Z,36.6
2019-03-31T06:08:58.604Z,36.7
2019-03-31T06:10:12.892Z,37
2019-03-31T06:11:26.996Z,36.8
2019-03-31T06:12:41.275Z,32.9
2019-03-31T06:13:55.408Z,35
2019-03-31T06:15:09.599Z,35.4
2019-03-31T06:16:23.790Z,37
2019-03-31T06:17:37.982Z,35
2019-03-31T06:18:52.257Z,34.6
2019-03-31T06:20:06.392Z,35.1
2019-03-31T06:21:20.662Z,34.9
2019-03-31T06:22:34.760Z,34.1
2019-03-31T06:23:49.177Z,33.1
2019-03-31T06:25:03.336Z,32.5
2019-03-31T06:26:17.507Z,30.9
2019-03-31T06:27:31.557Z,31.5
2019-03-31T06:28:45.755Z,31.7
2019-03-31T06:30:00.014Z,30.5
2019-03-31T06:31:14.158Z,32.4
2019-03-31T06:32:28.516Z,32.1
2019-03-31T06:33:42.677Z,31.2
2019-03-31T06:34:56.751Z,30.9
2019-03-31T06:36:10.940Z,31.2
2019-03-31T06:37:25.141Z,30.4
2019-03-31T06:38:39.410Z,31.3
2019-03-31T06:39:53.523Z,28.4
2019-03-31T06:41:07.800Z,30.4
2019-03-31T06:42:21.913Z,27.5
2019-03-31T06:43:36.172Z,28.9
2019-03-31T06:44:50.329Z,28.8
2019-03-31T06:46:04.597Z,29.4
2019-03-31T06:47:18.738Z,29.3
2019-03-31T06:48:33.064Z,28.5
2019-03-31T06:49:47.065Z,27.1
2019-03-31T06:51:01.261Z,26.3
2019-03-31T06:52:15.604Z,26
2019-03-31T06:53:29.611Z,26.3
2019-03-31T06:54:43.878Z,26.5
2019-03-31T06:55:58.051Z,26.2
2019-03-31T06:57:12.161Z,27.5
2019-03-31T06:58:26.436Z,25.5
2019-03-31T06:59:40.527Z,25
2019-03-31T07:00:54.789Z,25.9
2019-03-31T07:02:08.930Z,26.2
2019-03-31T07:03:23.081Z,25.8
2019-03-31T07:04:37.224Z,25.9
2019-03-31T07:05:51.555Z,27.2
2019-03-31T07:07:05.969Z,26.1
2019-03-31T07:08:19.857Z,26.7
2019-03-31T07:09:33.893Z,24.6
2019-03-31T07:10:48.190Z,25.1
2019-03-31T07:12:02.744Z,24.7
2019-03-31T07:13:19.007Z,25.5
2019-03-31T07:14:32.458Z,24.4
2019-03-31T07:15:44.745Z,24.1
2019-03-31T07:16:59.144Z,24
2019-03-31T07:18:13.127Z,23.8
2019-03-31T07:19:27.249Z,23.4
2019-03-31T07:20:41.380Z,22.6
2019-03-31T07:21:55.562Z,22.6
2019-03-31T07:23:09.768Z,22.7
2019-03-31T07:24:23.852Z,22.2
2019-03-31T07:25:38.017Z,20.9
2019-03-31T07:26:52.247Z,19.3
2019-03-31T07:28:06.355Z,21
2019-03-31T07:29:20.477Z,20.9
2019-03-31T07:30:34.666Z,21
2019-03-31T07:31:48.873Z,21.2
2019-03-31T07:33:02.932Z,19.8
2019-03-31T07:34:17.059Z,21.6
2019-03-31T07:35:31.226Z,19.8
2019-03-31T07:36:50.416Z,20.5
2019-03-31T07:37:59.500Z,18.6
2019-03-31T07:39:13.671Z,20.8
2019-03-31T07:40:27.813Z,20.9
2019-03-31T07:41:41.986Z,21.3
2019-03-31T07:42:56.206Z,21.7
2019-03-31T07:44:10.276Z,21.4
2019-03-31T07:45:24.437Z,21.5
2019-03-31T07:46:38.597Z,20.4
2019-03-31T07:47:52.754Z,19.7
2019-03-31T07:49:07.075Z,20
2019-03-31T07:50:21.057Z,20.2
2019-03-31T07:51:35.340Z,18.3
2019-03-31T07:52:49.440Z,19.4
2019-03-31T07:54:03.524Z,20.3
2019-03-31T07:55:17.699Z,20.6
2019-03-31T07:56:31.911Z,19.5
2019-03-31T07:57:50.895Z,20.4
2019-03-31T07:59:02.876Z,20.4
2019-03-31T08:00:14.415Z,19.8
2019-03-31T08:01:28.520Z,19.9
2019-03-31T08:02:42.776Z,19.2
2019-03-31T08:03:56.873Z,18.4
2019-03-31T08:05:10.909Z,18.6
2019-03-31T08:06:25.096Z,19.6
2019-03-31T08:07:39.322Z,18.8
2019-03-31T08:08:53.408Z,17.5
2019-03-31T08:10:07.564Z,17.8
2019-03-31T08:11:21.859Z,18.1
2019-03-31T08:12:36.004Z,18.7
2019-03-31T08:13:50.075Z,17.7
2019-03-31T08:15:04.322Z,17.7
2019-03-31T08:16:18.428Z,18.6
2019-03-31T08:17:32.636Z,18.9
2019-03-31T08:18:46.757Z,17.4
2019-03-31T08:20:01.037Z,17.9
2019-03-31T08:21:15.146Z,16.6
2019-03-31T08:22:29.249Z,16.8
2019-03-31T08:23:43.501Z,16.1
2019-03-31T08:24:57.632Z,16.9
2019-03-31T08:26:11.832Z,17
2019-03-31T08:27:25.963Z,16.4
2019-03-31T08:28:40.132Z,15.9
2019-03-31T08:29:54.367Z,15.9
2019-03-31T08:31:08.503Z,14.6
2019-03-31T08:32:22.665Z,14
2019-03-31T08:33:36.834Z,14.4
2019-03-31T08:34:51.058Z,13.9
2019-03-31T08:36:05.280Z,14.3
2019-03-31T08:37:19.358Z,14
2019-03-31T08:38:33.548Z,14
2019-03-31T08:39:47.708Z,12.7
2019-03-31T08:41:01.871Z,12.7
2019-03-31T08:42:16.132Z,12.5
2019-03-31T08:43:30.240Z,13.2
2019-03-31T08:44:44.594Z,12
2019-03-31T08:45:58.585Z,11.7
2019-03-31T08:47:12.845Z,11.8
2019-03-31T08:48:26.938Z,11.9
2019-03-31T08:49:41.119Z,12.1
2019-03-31T08:50:55.416Z,12.4
2019-03-31T08:52:09.489Z,12.2
2019-03-31T08:53:23.742Z,11.7
2019-03-31T08:54:37.840Z,12
2019-03-31T08:55:52.010Z,11.1
2019-03-31T08:57:06.175Z,10.5
2019-03-31T08:58:20.407Z,11.1
2019-03-31T08:59:34.527Z,11.3
2019-03-31T09:00:48.813Z,11.3
2019-03-31T09:02:02.951Z,10.4
2019-03-31T09:03:17.010Z,9.6
2019-03-31T09:04:31.152Z,10.6
2019-03-31T09:05:45.306Z,10.6
2019-03-31T09:06:59.444Z,10.2
2019-03-31T09:08:13.649Z,10.3
2019-03-31T09:09:27.723Z,10.5
2019-03-31T09:10:41.875Z,9.5
2019-03-31T09:11:56.111Z,9.7
2019-03-31T09:13:10.163Z,9.1
2019-03-31T09:14:24.433Z,9.4
2019-03-31T09:15:38.508Z,9.8
2019-03-31T09:16:52.618Z,9.3
2019-03-31T09:18:06.815Z,9.7
2019-03-31T09:19:20.924Z,10.1
2019-03-31T09:20:35.111Z,10
2019-03-31T09:21:49.258Z,9.1
2019-03-31T09:23:03.412Z,9.6
2019-03-31T09:24:17.578Z,9.6
2019-03-31T09:25:31.805Z,9.7
2019-03-31T09:26:46.217Z,9.3
2019-03-31T09:28:00.089Z,8.5
2019-03-31T09:29:14.215Z,9.4
2019-03-31T09:30:28.382Z,8.9
2019-03-31T09:31:42.674Z,9.1
2019-03-31T09:32:56.781Z,9.3
2019-03-31T09:34:10.927Z,9.7
2019-03-31T09:35:25.005Z,9.3
2019-03-31T09:36:39.160Z,8
2019-03-31T09:37:53.431Z,8
2019-03-31T09:39:07.471Z,7.7
2019-03-31T09:40:21.617Z,7.7
2019-03-31T09:41:35.770Z,8.2
2019-03-31T09:42:49.962Z,8.5
2019-03-31T09:44:04.091Z,8.1
2019-03-31T09:45:18.257Z,8.3
2019-03-31T09:46:32.639Z,8.2
2019-03-31T09:47:46.586Z,7.8
2019-03-31T09:49:00.863Z,7.8
2019-03-31T09:50:15.041Z,8
2019-03-31T09:51:29.073Z,8.1
2019-03-31T09:52:43.247Z,9
2019-03-31T09:53:57.491Z,7.9
2019-03-31T09:55:11.576Z,8.4
2019-03-31T09:56:25.815Z,7.9
2019-03-31T09:57:39.953Z,7.8
2019-03-31T09:58:54.049Z,7.6
2019-03-31T10:00:08.219Z,6.5
2019-03-31T10:01:22.379Z,6.9
2019-03-31T10:02:36.647Z,7.2
2019-03-31T10:03:50.768Z,7.3
2019-03-31T10:05:04.840Z,7
2019-03-31T10:06:19.003Z,6.4
2019-03-31T10:07:33.193Z,7.1
2019-03-31T10:08:47.360Z,7.5
2019-03-31T10:10:01.490Z,7.5
2019-03-31T10:11:15.672Z,8.3
2019-03-31T10:12:29.799Z,7.9
2019-03-31T10:13:44.008Z,8.1
2019-03-31T10:14:58.145Z,8
2019-03-31T10:16:12.261Z,7.7
2019-03-31T10:17:26.443Z,8.1
2019-03-31T10:18:40.588Z,8.1
2019-03-31T10:19:54.813Z,7.1
2019-03-31T10:21:08.927Z,7.1
2019-03-31T10:22:23.098Z,6.8
2019-03-31T10:23:37.262Z,6.8
2019-03-31T10:24:51.491Z,6.9
2019-03-31T10:26:05.628Z,7.2
2019-03-31T10:27:19.749Z,6.9
2019-03-31T10:28:33.893Z,6.3
2019-03-31T10:29:48.067Z,6.9
2019-03-31T10:31:02.300Z,7.1
2019-03-31T10:32:16.345Z,6.9
2019-03-31T10:33:30.537Z,6.7
2019-03-31T10:34:44.651Z,7
2019-03-31T10:35:58.822Z,7.1
2019-03-31T10:37:12.961Z,7.5
2019-03-31T10:38:27.259Z,7.4
2019-03-31T10:39:41.399Z,7.6
2019-03-31T10:40:55.489Z,8.3
2019-03-31T10:42:09.740Z,8.1
2019-03-31T10:43:23.757Z,8.2
2019-03-31T10:44:37.909Z,8.9
2019-03-31T10:45:52.044Z,7.9
2019-03-31T10:47:06.175Z,8.3
2019-03-31T10:48:20.741Z,8.7
2019-03-31T10:49:34.565Z,9
2019-03-31T10:50:48.743Z,8.5
2019-03-31T10:52:03.320Z,9.1
2019-03-31T10:53:16.951Z,8.3
2019-03-31T10:54:31.090Z,9.2
2019-03-31T10:55:45.259Z,8.5
2019-03-31T10:56:59.420Z,9
2019-03-31T10:58:13.651Z,9.4
2019-03-31T10:59:27.737Z,8.8
2019-03-31T11:00:41.851Z,8.5
2019-03-31T11:01:56.037Z,8.7
2019-03-31T11:03:10.145Z,8.5
2019-03-31T11:04:24.321Z,9.6
2019-03-31T11:05:38.670Z,9.1
2019-03-31T11:06:52.658Z,9.6
2019-03-31T11:08:06.772Z,9.8
2019-03-31T11:09:21.102Z,9.5
2019-03-31T11:10:35.023Z,9.2
2019-03-31T11:11:49.170Z,9.9
2019-03-31T11:13:03.393Z,9.3
2019-03-31T11:14:17.966Z,9.5
2019-03-31T11:15:31.772Z,9.5
2019-03-31T11:16:45.810Z,9.6
2019-03-31T11:17:59.953Z,9.5
2019-03-31T11:19:14.105Z,9.7
2019-03-31T11:20:28.292Z,10.5
2019-03-31T11:21:42.506Z,10.7
2019-03-31T11:22:56.625Z,10.8
2019-03-31T11:24:10.795Z,11.2
2019-03-31T11:25:24.950Z,11.1
2019-03-31T11:26:39.195Z,10.9
2019-03-31T11:27:53.310Z,11.5
2019-03-31T11:29:07.570Z,10.9
2019-03-31T11:30:21.722Z,10.2
2019-03-31T11:31:35.836Z,10.7
2019-03-31T11:32:50.018Z,10
2019-03-31T11:34:04.177Z,10.3
2019-03-31T11:35:18.359Z,10.6
2019-03-31T11:36:32.558Z,10.4
2019-03-31T11:37:46.869Z,10.4
2019-03-31T11:39:00.869Z,10.4
2019-03-31T11:40:15.042Z,10.8
2019-03-31T11:41:29.203Z,10.4
2019-03-31T11:42:43.452Z,10.6
2019-03-31T11:43:57.625Z,10.5
2019-03-31T11:45:11.803Z,10.3
2019-03-31T11:46:25.854Z,10.1
2019-03-31T11:47:42.998Z,10.4
2019-03-31T11:48:54.226Z,9.9
2019-03-31T11:50:08.345Z,9.5
2019-03-31T11:51:22.505Z,9.8
2019-03-31T11:52:36.963Z,9.3
2019-03-31T11:53:50.807Z,8.4
2019-03-31T11:55:04.958Z,8.5
2019-03-31T11:56:19.134Z,9.4
2019-03-31T11:57:33.265Z,9.1
2019-03-31T11:58:47.442Z,8.3
2019-03-31T12:00:01.635Z,8
2019-03-31T12:01:15.737Z,8.3
2019-03-31T12:02:29.864Z,8.5
2019-03-31T12:03:43.996Z,7.8
2019-03-31T12:04:58.244Z,7.7
2019-03-31T12:06:12.301Z,6.6
2019-03-31T12:07:26.474Z,6.5
2019-03-31T12:08:40.618Z,6.6
2019-03-31T12:09:54.746Z,6.6
2019-03-31T12:11:08.963Z,6
2019-03-31T12:12:23.103Z,5.4
2019-03-31T12:13:37.193Z,6.1
2019-03-31T12:14:51.553Z,5.9
2019-03-31T12:16:05.548Z,5.6
2019-03-31T12:17:19.627Z,6.1
2019-03-31T12:18:33.852Z,5.8
2019-03-31T12:19:47.928Z,5.9
2019-03-31T12:21:02.074Z,5.9
2019-03-31T12:22:16.238Z,5.4
2019-03-31T12:23:30.419Z,5.8
2019-03-31T12:24:44.508Z,5.1
2019-03-31T12:25:58.681Z,5.4
2019-03-31T12:27:12.805Z,5.2
2019-03-31T12:28:26.942Z,4.3
2019-03-31T12:29:41.062Z,4.2
2019-03-31T12:30:55.234Z,4.6
2019-03-31T12:32:09.331Z,4.1
2019-03-31T12:33:23.464Z,5
2019-03-31T12:34:37.598Z,5.1
2019-03-31T12:35:51.694Z,4.3
2019-03-31T12:37:05.800Z,4.5
2019-03-31T12:38:19.952Z,4.2
2019-03-31T12:39:34.170Z,3.7
2019-03-31T12:40:48.245Z,3.9
2019-03-31T12:42:02.350Z,3.9
2019-03-31T12:43:16.398Z,3.6
2019-03-31T12:44:30.715Z,3.9
2019-03-31T12:45:44.616Z,3.9
2019-03-31T12:46:58.812Z,3.6
2019-03-31T12:48:12.890Z,4
2019-03-31T12:49:26.965Z,3.5
2019-03-31T12:50:41.092Z,3.8
2019-03-31T12:51:55.282Z,3.2
2019-03-31T12:53:09.336Z,3.7
2019-03-31T12:54:23.449Z,3.7
2019-03-31T12:55:37.602Z,3.8
2019-03-31T12:56:51.717Z,3.7
2019-03-31T12:58:05.857Z,3.6
2019-03-31T12:59:20.056Z,3.3
2019-03-31T13:00:34.171Z,3.6
2019-03-31T13:01:48.409Z,3.7
2019-03-31T13:03:02.425Z,3.5
2019-03-31T13:04:16.587Z,3.8
2019-03-31T13:05:30.730Z,3.7
2019-03-31T13:06:45.014Z,3.3
2019-03-31T13:07:59.031Z,3.6
2019-03-31T13:09:13.190Z,3.7
2019-03-31T13:10:27.320Z,3.1
2019-03-31T13:11:41.456Z,2.9
2019-03-31T13:12:55.595Z,2.9
2019-03-31T13:14:09.894Z,3.7
2019-03-31T13:15:24.018Z,3.2
2019-03-31T13:16:38.174Z,2.9
2019-03-31T13:17:52.286Z,3.4
2019-03-31T13:19:06.537Z,3
2019-03-31T13:20:20.643Z,3.1
2019-03-31T13:21:34.779Z,3.1
2019-03-31T13:22:48.827Z,3.1
2019-03-31T13:24:03.121Z,2.8
2019-03-31T13:25:17.101Z,3.1
2019-03-31T13:26:31.562Z,3.1
2019-03-31T13:27:45.416Z,2.8
2019-03-31T13:28:59.600Z,3
2019-03-31T13:30:13.556Z,3.3
2019-03-31T13:31:27.777Z,3.7
2019-03-31T13:32:41.763Z,3
2019-03-31T13:33:55.974Z,3.2
2019-03-31T13:35:09.968Z,3.4
2019-03-31T13:36:24.101Z,3.1
2019-03-31T13:37:38.243Z,3.2
2019-03-31T13:38:52.297Z,2.9
2019-03-31T13:40:06.417Z,2.8
2019-03-31T13:41:20.512Z,2.7
2019-03-31T13:42:34.637Z,3.2
2019-03-31T13:43:48.693Z,3.1
2019-03-31T13:45:02.864Z,2.9
2019-03-31T13:46:17.006Z,2.6
2019-03-31T13:47:31.057Z,2.9
2019-03-31T13:48:45.277Z,3.2
2019-03-31T13:49:59.292Z,3
2019-03-31T13:51:13.423Z,3
2019-03-31T13:52:27.612Z,3.4
2019-03-31T13:53:41.799Z,2.9
2019-03-31T13:54:55.848Z,2.9
2019-03-31T13:56:10.086Z,2.9
2019-03-31T13:57:24.107Z,2.8
2019-03-31T13:58:38.236Z,2.5
2019-03-31T13:59:52.347Z,2.8
2019-03-31T14:01:11.225Z,2.8
2019-03-31T14:02:20.648Z,2.7
2019-03-31T14:03:34.691Z,2.7
2019-03-31T14:04:48.824Z,3.4
2019-03-31T14:06:02.914Z,2.7
2019-03-31T14:07:17.016Z,3
2019-03-31T14:08:31.125Z,2.8
2019-03-31T14:09:45.246Z,2.9
2019-03-31T14:10:59.403Z,3.1
2019-03-31T14:12:13.497Z,2.7
2019-03-31T14:13:27.686Z,2.9
2019-03-31T14:14:41.701Z,2.8
2019-03-31T14:15:55.882Z,3
2019-03-31T14:17:09.973Z,2.7
2019-03-31T14:18:24.119Z,3
2019-03-31T14:19:38.141Z,3
2019-03-31T14:20:52.326Z,2.6
2019-03-31T14:22:06.400Z,2.5
2019-03-31T14:23:25.182Z,2.7
2019-03-31T14:24:34.617Z,2.6
2019-03-31T14:25:48.762Z,2.7
2019-03-31T14:27:02.876Z,2.5
2019-03-31T14:28:16.981Z,2.3
2019-03-31T14:29:31.132Z,2.7
2019-03-31T14:30:45.347Z,2.6
2019-03-31T14:31:59.405Z,3
2019-03-31T14:33:13.537Z,2.8
2019-03-31T14:34:27.644Z,3
2019-03-31T14:35:41.778Z,2.7
2019-03-31T14:36:55.910Z,2.9
2019-03-31T14:38:09.989Z,3.2
2019-03-31T14:39:24.095Z,3.4
2019-03-31T14:40:38.266Z,3.3
2019-03-31T14:41:52.464Z,3.1
2019-03-31T14:43:06.665Z,3.3
2019-03-31T14:44:20.671Z,3
2019-03-31T14:45:34.669Z,2.9
2019-03-31T14:46:48.879Z,3.2
2019-03-31T14:48:03.001Z,3.1
2019-03-31T14:49:17.097Z,3
2019-03-31T14:50:36.211Z,3.5
2019-03-31T14:51:45.337Z,3.2
2019-03-31T14:52:59.485Z,3.4
2019-03-31T14:54:13.622Z,3.2
2019-03-31T14:55:27.840Z,3.5
2019-03-31T14:56:41.861Z,3.3
2019-03-31T14:57:55.999Z,2.9
2019-03-31T14:59:10.199Z,4.2
2019-03-31T15:00:24.248Z,3.3
2019-03-31T15:01:38.420Z,3.2
2019-03-31T15:02:52.489Z,3.4
2019-03-31T15:04:06.622Z,3.5
2019-03-31T15:05:20.756Z,3.2
2019-03-31T15:06:34.903Z,3.3
2019-03-31T15:07:49.013Z,3
2019-03-31T15:09:03.136Z,3.3
2019-03-31T15:10:17.257Z,3.3
2019-03-31T15:11:31.376Z,3.5
2019-03-31T15:12:45.502Z,3.2
2019-03-31T15:13:59.618Z,3.4
2019-03-31T15:15:13.741Z,3.6
2019-03-31T15:16:27.915Z,3.2
2019-03-31T15:17:41.976Z,2.9
2019-03-31T15:18:56.123Z,3.1
2019-03-31T15:20:10.252Z,2.7
2019-03-31T15:21:24.356Z,2.8
2019-03-31T15:22:38.471Z,2.7
2019-03-31T15:23:52.646Z,2.9
2019-03-31T15:25:06.815Z,2.7
2019-03-31T15:26:20.847Z,3
2019-03-31T15:27:39.330Z,2.9
2019-03-31T15:28:49.180Z,3.2
2019-03-31T15:30:03.311Z,3.2
2019-03-31T15:31:17.362Z,2.9
2019-03-31T15:32:31.672Z,3.1
2019-03-31T15:33:45.599Z,3.2
2019-03-31T15:34:59.789Z,2.6
2019-03-31T15:36:13.961Z,2.6
2019-03-31T15:37:27.993Z,3.1
2019-03-31T15:38:42.127Z,2.5
2019-03-31T15:39:56.257Z,2.7
2019-03-31T15:41:10.383Z,3.2
2019-03-31T15:42:24.513Z,2.9
2019-03-31T15:43:38.680Z,3.2
2019-03-31T15:44:53.013Z,2.9
2019-03-31T15:46:06.915Z,2.7
2019-03-31T15:47:21.136Z,2.6
2019-03-31T15:48:35.295Z,2.8
2019-03-31T15:49:49.294Z,2.8
2019-03-31T15:51:03.429Z,2.7
2019-03-31T15:52:17.551Z,2.9
2019-03-31T15:53:31.662Z,2.7
2019-03-31T15:54:45.868Z,2.8
2019-03-31T15:56:00.694Z,2.9
2019-03-31T15:57:14.037Z,2.7
2019-03-31T15:58:28.219Z,2.6
2019-03-31T15:59:42.329Z,2.6
2019-03-31T16:00:56.497Z,2.7
2019-03-31T16:02:10.628Z,2.9
2019-03-31T16:03:24.720Z,2.6
2019-03-31T16:04:38.860Z,2.7
2019-03-31T16:05:52.902Z,2.5
2019-03-31T16:07:07.055Z,2.3
2019-03-31T16:08:21.274Z,2.4
2019-03-31T16:09:40.197Z,2.8
2019-03-31T16:10:49.621Z,2.8
2019-03-31T16:12:03.654Z,2.7
2019-03-31T16:13:17.836Z,2.4
2019-03-31T16:14:31.926Z,2.6
2019-03-31T16:15:45.990Z,2.8
2019-03-31T16:17:00.132Z,2.7
2019-03-31T16:18:14.267Z,2.7
2019-03-31T16:19:28.458Z,2.8
2019-03-31T16:20:42.541Z,2.3
2019-03-31T16:21:56.807Z,2.8
2019-03-31T16:23:10.836Z,2.3
2019-03-31T16:24:24.987Z,2.5
2019-03-31T16:25:39.168Z,2.5
2019-03-31T16:26:53.813Z,2.4
2019-03-31T16:28:07.442Z,2.6
2019-03-31T16:29:21.661Z,2.6
2019-03-31T16:30:35.753Z,2.5
2019-03-31T16:31:49.955Z,2.7
2019-03-31T16:34:18.181Z,2.2
2019-03-31T16:35:32.371Z,2.3
2019-03-31T16:36:46.601Z,2.7
2019-03-31T16:38:00.663Z,2.4
2019-03-31T16:39:14.871Z,2.2
2019-03-31T16:40:29.056Z,2.4
2019-03-31T16:41:43.143Z,2.5
2019-03-31T16:42:57.335Z,2.4
2019-03-31T16:44:11.539Z,2.6
2019-03-31T16:45:25.648Z,2
2019-03-31T16:46:39.805Z,2.4
2019-03-31T16:47:53.990Z,2.3
2019-03-31T16:49:08.115Z,2.4